sensor_id;sensor_type;location;lat;lon;timestamp;temperature;humidity
11894;DHT22;6006;49.696;8.662;2022-12-29T00:00:13;10.90;99.90
11894;DHT22;6006;49.696;8.662;2022-12-29T00:02:41;10.80;1.00
11894;DHT22;6006;49.696;8.662;2022-12-29T00:05:08;10.80;21.60
11894;DHT22;6006;49.696;8.662;2022-12-29T00:07:36;11.00;1.00
11894;DHT22;6006;49.696;8.662;2022-12-29T00:10:04;10.90;1.00
11894;DHT22;6006;49.696;8.662;2022-12-29T00:12:31;10.90;1.00
11894;DHT22;6006;49.696;8.662;2022-12-29T00:15:12;10.90;91.80
11894;DHT22;6006;49.696;8.662;2022-12-29T00:17:56;10.90;99.90
11894;DHT22;6006;49.696;8.662;2022-12-29T00:20:23;11.00;99.90
11894;DHT22;6006;49.696;8.662;2022-12-29T00:23:09;11.00;99.90
11894;DHT22;6006;49.696;8.662;2022-12-29T00:25:55;11.00;99.90
11894;DHT22;6006;49.696;8.662;2022-12-29T00:28:39;11.00;61.80
11894;DHT22;6006;49.696;8.662;2022-12-29T00:31:23;11.00;99.90
11894;DHT22;6006;49.696;8.662;2022-12-29T00:34:10;11.00;99.90
11894;DHT22;6006;49.696;8.662;2022-12-29T00:36:54;11.00;99.90
11894;DHT22;6006;49.696;8.662;2022-12-29T00:39:23;11.10;1.00
11894;DHT22;6006;49.696;8.662;2022-12-29T00:42:08;11.10;3.00
11894;DHT22;6006;49.696;8.662;2022-12-29T00:44:58;11.10;18.30
11894;DHT22;6006;49.696;8.662;2022-12-29T00:47:25;11.10;99.90
11894;DHT22;6006;49.696;8.662;2022-12-29T00:49:52;11.00;1.00
11894;DHT22;6006;49.696;8.662;2022-12-29T00:52:17;10.90;1.00
11894;DHT22;6006;49.696;8.662;2022-12-29T00:54:46;10.90;19.30
11894;DHT22;6006;49.696;8.662;2022-12-29T00:57:13;10.90;99.90
11894;DHT22;6006;49.696;8.662;2022-12-29T00:59:41;10.90;1.00
11894;DHT22;6006;49.696;8.662;2022-12-29T01:02:08;10.90;1.00
11894;DHT22;6006;49.696;8.662;2022-12-29T01:04:36;10.90;1.00
11894;DHT22;6006;49.696;8.662;2022-12-29T01:07:03;10.90;1.00
11894;DHT22;6006;49.696;8.662;2022-12-29T01:09:31;10.90;99.90
11894;DHT22;6006;49.696;8.662;2022-12-29T01:12:17;10.90;1.00
11894;DHT22;6006;49.696;8.662;2022-12-29T01:15:06;10.90;1.00
11894;DHT22;6006;49.696;8.662;2022-12-29T01:17:33;10.90;99.90
11894;DHT22;6006;49.696;8.662;2022-12-29T01:20:00;10.90;99.90
11894;DHT22;6006;49.696;8.662;2022-12-29T01:22:27;10.80;1.00
11894;DHT22;6006;49.696;8.662;2022-12-29T01:24:54;10.90;99.90
11894;DHT22;6006;49.696;8.662;2022-12-29T01:27:22;11.20;99.90
11894;DHT22;6006;49.696;8.662;2022-12-29T01:29:49;11.10;1.00
11894;DHT22;6006;49.696;8.662;2022-12-29T01:32:16;11.20;1.00
11894;DHT22;6006;49.696;8.662;2022-12-29T01:34:43;11.20;1.00
11894;DHT22;6006;49.696;8.662;2022-12-29T01:37:10;11.20;1.00
11894;DHT22;6006;49.696;8.662;2022-12-29T01:39:37;11.20;99.90
11894;DHT22;6006;49.696;8.662;2022-12-29T01:42:04;11.10;99.90
11894;DHT22;6006;49.696;8.662;2022-12-29T01:44:52;11.00;99.90
11894;DHT22;6006;49.696;8.662;2022-12-29T01:47:27;10.90;99.90
11894;DHT22;6006;49.696;8.662;2022-12-29T01:49:57;10.80;1.00
11894;DHT22;6006;49.696;8.662;2022-12-29T01:52:26;10.80;1.00
11894;DHT22;6006;49.696;8.662;2022-12-29T01:54:56;10.90;1.00
11894;DHT22;6006;49.696;8.662;2022-12-29T01:57:26;10.90;1.00
11894;DHT22;6006;49.696;8.662;2022-12-29T01:59:58;10.90;65.20
11894;DHT22;6006;49.696;8.662;2022-12-29T02:02:27;10.90;1.00
11894;DHT22;6006;49.696;8.662;2022-12-29T02:04:55;10.90;99.90
11894;DHT22;6006;49.696;8.662;2022-12-29T02:07:26;11.00;99.90
11894;DHT22;6006;49.696;8.662;2022-12-29T02:09:54;11.10;99.90
11894;DHT22;6006;49.696;8.662;2022-12-29T02:12:23;11.10;99.90
11894;DHT22;6006;49.696;8.662;2022-12-29T02:14:55;11.20;99.90
11894;DHT22;6006;49.696;8.662;2022-12-29T02:17:34;11.30;99.90
11894;DHT22;6006;49.696;8.662;2022-12-29T02:23:36;11.40;1.00
11894;DHT22;6006;49.696;8.662;2022-12-29T02:26:22;11.40;1.00
11894;DHT22;6006;49.696;8.662;2022-12-29T02:31:59;11.40;1.00
11894;DHT22;6006;49.696;8.662;2022-12-29T02:34:37;11.50;1.00
11894;DHT22;6006;49.696;8.662;2022-12-29T02:37:14;11.50;1.00
11894;DHT22;6006;49.696;8.662;2022-12-29T02:39:51;11.50;1.00
11894;DHT22;6006;49.696;8.662;2022-12-29T02:42:23;11.50;1.00
11894;DHT22;6006;49.696;8.662;2022-12-29T02:44:55;11.50;1.00
11894;DHT22;6006;49.696;8.662;2022-12-29T02:47:33;11.50;1.00
11894;DHT22;6006;49.696;8.662;2022-12-29T02:50:08;11.50;1.00
11894;DHT22;6006;49.696;8.662;2022-12-29T02:52:44;11.50;1.00
11894;DHT22;6006;49.696;8.662;2022-12-29T02:55:12;11.50;99.90
11894;DHT22;6006;49.696;8.662;2022-12-29T02:57:38;11.50;1.00
11894;DHT22;6006;49.696;8.662;2022-12-29T03:00:07;11.50;1.00
11894;DHT22;6006;49.696;8.662;2022-12-29T03:02:56;11.50;1.00
11894;DHT22;6006;49.696;8.662;2022-12-29T03:08:25;11.50;99.90
11894;DHT22;6006;49.696;8.662;2022-12-29T03:10:59;11.50;1.00
11894;DHT22;6006;49.696;8.662;2022-12-29T03:13:32;11.50;1.00
11894;DHT22;6006;49.696;8.662;2022-12-29T03:16:22;11.50;99.90
11894;DHT22;6006;49.696;8.662;2022-12-29T03:18:57;11.50;99.90
11894;DHT22;6006;49.696;8.662;2022-12-29T03:21:31;11.50;99.90
11894;DHT22;6006;49.696;8.662;2022-12-29T03:24:19;11.60;99.90
11894;DHT22;6006;49.696;8.662;2022-12-29T03:26:47;11.60;99.90
11894;DHT22;6006;49.696;8.662;2022-12-29T03:29:17;11.50;99.90
11894;DHT22;6006;49.696;8.662;2022-12-29T03:31:45;11.60;99.90
11894;DHT22;6006;49.696;8.662;2022-12-29T03:34:15;11.60;97.30
11894;DHT22;6006;49.696;8.662;2022-12-29T03:36:48;11.50;99.90
11894;DHT22;6006;49.696;8.662;2022-12-29T03:39:19;11.50;75.00
11894;DHT22;6006;49.696;8.662;2022-12-29T03:41:49;11.60;41.00
11894;DHT22;6006;49.696;8.662;2022-12-29T03:44:16;11.50;1.00
11894;DHT22;6006;49.696;8.662;2022-12-29T03:46:43;11.50;99.90
11894;DHT22;6006;49.696;8.662;2022-12-29T03:49:10;11.50;99.90
11894;DHT22;6006;49.696;8.662;2022-12-29T03:51:38;11.50;99.90
11894;DHT22;6006;49.696;8.662;2022-12-29T03:54:05;11.50;99.90
11894;DHT22;6006;49.696;8.662;2022-12-29T03:56:32;11.40;99.90
11894;DHT22;6006;49.696;8.662;2022-12-29T03:58:59;11.40;99.90
11894;DHT22;6006;49.696;8.662;2022-12-29T04:01:26;11.40;99.90
11894;DHT22;6006;49.696;8.662;2022-12-29T04:03:52;11.40;99.90
11894;DHT22;6006;49.696;8.662;2022-12-29T04:06:19;11.40;1.00
11894;DHT22;6006;49.696;8.662;2022-12-29T04:08:48;11.50;1.00
11894;DHT22;6006;49.696;8.662;2022-12-29T04:11:14;11.50;1.00
11894;DHT22;6006;49.696;8.662;2022-12-29T04:13:41;11.50;1.00
11894;DHT22;6006;49.696;8.662;2022-12-29T04:16:08;11.60;99.90
11894;DHT22;6006;49.696;8.662;2022-12-29T04:18:35;11.60;99.90
11894;DHT22;6006;49.696;8.662;2022-12-29T04:21:02;11.60;1.00
11894;DHT22;6006;49.696;8.662;2022-12-29T04:23:31;11.60;1.00
11894;DHT22;6006;49.696;8.662;2022-12-29T04:26:00;11.60;99.90
11894;DHT22;6006;49.696;8.662;2022-12-29T04:28:27;11.70;1.00
11894;DHT22;6006;49.696;8.662;2022-12-29T04:30:55;11.60;28.60
11894;DHT22;6006;49.696;8.662;2022-12-29T04:33:22;11.50;1.00
11894;DHT22;6006;49.696;8.662;2022-12-29T04:35:48;11.40;1.00
11894;DHT22;6006;49.696;8.662;2022-12-29T04:38:15;11.40;1.00
11894;DHT22;6006;49.696;8.662;2022-12-29T04:40:43;11.40;1.00
11894;DHT22;6006;49.696;8.662;2022-12-29T04:43:11;11.40;60.10
11894;DHT22;6006;49.696;8.662;2022-12-29T04:45:39;11.40;1.00
11894;DHT22;6006;49.696;8.662;2022-12-29T04:48:06;11.50;97.70
11894;DHT22;6006;49.696;8.662;2022-12-29T04:50:32;11.50;7.80
11894;DHT22;6006;49.696;8.662;2022-12-29T04:52:59;11.50;1.00
11894;DHT22;6006;49.696;8.662;2022-12-29T04:55:26;11.50;1.00
11894;DHT22;6006;49.696;8.662;2022-12-29T04:57:53;11.50;99.90
11894;DHT22;6006;49.696;8.662;2022-12-29T05:00:22;11.50;99.90
11894;DHT22;6006;49.696;8.662;2022-12-29T05:02:49;11.50;99.90
11894;DHT22;6006;49.696;8.662;2022-12-29T05:05:17;11.50;48.90
11894;DHT22;6006;49.696;8.662;2022-12-29T05:07:44;11.60;1.00
11894;DHT22;6006;49.696;8.662;2022-12-29T05:10:11;11.50;1.00
11894;DHT22;6006;49.696;8.662;2022-12-29T05:12:38;11.50;1.00
11894;DHT22;6006;49.696;8.662;2022-12-29T05:15:07;11.60;99.90
11894;DHT22;6006;49.696;8.662;2022-12-29T05:17:36;11.60;99.90
11894;DHT22;6006;49.696;8.662;2022-12-29T05:20:03;11.50;1.00
11894;DHT22;6006;49.696;8.662;2022-12-29T05:22:31;11.50;1.00
11894;DHT22;6006;49.696;8.662;2022-12-29T05:24:57;11.50;1.00
11894;DHT22;6006;49.696;8.662;2022-12-29T05:27:24;11.50;99.90
11894;DHT22;6006;49.696;8.662;2022-12-29T05:29:51;11.50;99.90
11894;DHT22;6006;49.696;8.662;2022-12-29T05:32:18;11.50;99.90
11894;DHT22;6006;49.696;8.662;2022-12-29T05:34:47;11.60;1.00
11894;DHT22;6006;49.696;8.662;2022-12-29T05:37:13;11.60;99.90
11894;DHT22;6006;49.696;8.662;2022-12-29T05:39:40;11.70;1.00
11894;DHT22;6006;49.696;8.662;2022-12-29T05:42:07;11.70;1.00
11894;DHT22;6006;49.696;8.662;2022-12-29T05:44:34;11.80;1.00
11894;DHT22;6006;49.696;8.662;2022-12-29T05:47:01;11.80;99.90
11894;DHT22;6006;49.696;8.662;2022-12-29T05:49:28;11.70;99.90
11894;DHT22;6006;49.696;8.662;2022-12-29T05:51:57;11.70;1.00
11894;DHT22;6006;49.696;8.662;2022-12-29T05:54:24;11.70;1.00
11894;DHT22;6006;49.696;8.662;2022-12-29T05:56:50;11.70;1.00
11894;DHT22;6006;49.696;8.662;2022-12-29T05:59:17;11.70;1.00
11894;DHT22;6006;49.696;8.662;2022-12-29T06:01:44;11.70;1.00
11894;DHT22;6006;49.696;8.662;2022-12-29T06:04:11;11.70;99.90
11894;DHT22;6006;49.696;8.662;2022-12-29T06:06:38;11.70;99.90
11894;DHT22;6006;49.696;8.662;2022-12-29T06:09:09;11.70;1.00
11894;DHT22;6006;49.696;8.662;2022-12-29T06:11:36;11.70;1.00
11894;DHT22;6006;49.696;8.662;2022-12-29T06:14:03;11.70;99.90
11894;DHT22;6006;49.696;8.662;2022-12-29T06:16:30;11.70;4.20
11894;DHT22;6006;49.696;8.662;2022-12-29T06:18:57;11.70;99.90
11894;DHT22;6006;49.696;8.662;2022-12-29T06:21:24;11.70;1.00
11894;DHT22;6006;49.696;8.662;2022-12-29T06:23:50;11.60;99.90
11894;DHT22;6006;49.696;8.662;2022-12-29T06:26:19;11.60;99.90
11894;DHT22;6006;49.696;8.662;2022-12-29T06:28:45;11.70;1.00
11894;DHT22;6006;49.696;8.662;2022-12-29T06:31:12;11.60;99.90
11894;DHT22;6006;49.696;8.662;2022-12-29T06:33:39;11.70;99.90
11894;DHT22;6006;49.696;8.662;2022-12-29T06:36:07;11.80;1.00
11894;DHT22;6006;49.696;8.662;2022-12-29T06:38:33;11.80;1.00
11894;DHT22;6006;49.696;8.662;2022-12-29T06:41:01;11.80;99.90
11894;DHT22;6006;49.696;8.662;2022-12-29T06:43:29;11.80;99.90
11894;DHT22;6006;49.696;8.662;2022-12-29T06:45:57;11.70;99.90
11894;DHT22;6006;49.696;8.662;2022-12-29T06:48:24;11.70;99.90
11894;DHT22;6006;49.696;8.662;2022-12-29T06:50:51;11.70;99.90
11894;DHT22;6006;49.696;8.662;2022-12-29T06:53:18;11.80;1.00
11894;DHT22;6006;49.696;8.662;2022-12-29T06:55:45;11.70;1.00
11894;DHT22;6006;49.696;8.662;2022-12-29T06:58:12;11.80;1.00
11894;DHT22;6006;49.696;8.662;2022-12-29T07:00:40;11.80;1.00
11894;DHT22;6006;49.696;8.662;2022-12-29T07:03:07;11.70;1.00
11894;DHT22;6006;49.696;8.662;2022-12-29T07:05:34;11.80;99.90
11894;DHT22;6006;49.696;8.662;2022-12-29T07:08:01;11.80;99.90
11894;DHT22;6006;49.696;8.662;2022-12-29T07:10:28;11.80;99.90
11894;DHT22;6006;49.696;8.662;2022-12-29T07:12:55;11.80;1.00
11894;DHT22;6006;49.696;8.662;2022-12-29T07:15:21;11.70;1.00
11894;DHT22;6006;49.696;8.662;2022-12-29T07:17:50;11.80;99.90
11894;DHT22;6006;49.696;8.662;2022-12-29T07:20:17;11.80;99.90
11894;DHT22;6006;49.696;8.662;2022-12-29T07:22:44;11.80;4.70
11894;DHT22;6006;49.696;8.662;2022-12-29T07:25:12;11.80;99.90
11894;DHT22;6006;49.696;8.662;2022-12-29T07:27:39;11.80;99.90
11894;DHT22;6006;49.696;8.662;2022-12-29T07:30:07;11.70;1.00
11894;DHT22;6006;49.696;8.662;2022-12-29T07:32:35;11.70;99.70
11894;DHT22;6006;49.696;8.662;2022-12-29T07:35:03;11.70;99.90
11894;DHT22;6006;49.696;8.662;2022-12-29T07:37:30;11.70;1.00
11894;DHT22;6006;49.696;8.662;2022-12-29T07:39:57;11.70;99.90
11894;DHT22;6006;49.696;8.662;2022-12-29T07:42:24;11.70;99.90
11894;DHT22;6006;49.696;8.662;2022-12-29T07:44:51;11.60;1.00
11894;DHT22;6006;49.696;8.662;2022-12-29T07:47:18;11.60;99.00
11894;DHT22;6006;49.696;8.662;2022-12-29T07:49:45;11.60;99.90
11894;DHT22;6006;49.696;8.662;2022-12-29T07:52:13;11.60;90.70
11894;DHT22;6006;49.696;8.662;2022-12-29T07:54:40;11.70;1.00
11894;DHT22;6006;49.696;8.662;2022-12-29T07:57:07;11.70;1.00
11894;DHT22;6006;49.696;8.662;2022-12-29T07:59:33;11.70;99.90
11894;DHT22;6006;49.696;8.662;2022-12-29T08:02:01;11.70;91.40
11894;DHT22;6006;49.696;8.662;2022-12-29T08:04:27;11.80;1.00
11894;DHT22;6006;49.696;8.662;2022-12-29T08:06:54;11.80;1.00
11894;DHT22;6006;49.696;8.662;2022-12-29T08:09:23;11.80;1.00
11894;DHT22;6006;49.696;8.662;2022-12-29T08:11:49;11.70;99.90
11894;DHT22;6006;49.696;8.662;2022-12-29T08:14:17;11.70;99.90
11894;DHT22;6006;49.696;8.662;2022-12-29T08:16:43;11.70;99.90
11894;DHT22;6006;49.696;8.662;2022-12-29T08:19:11;11.70;99.90
11894;DHT22;6006;49.696;8.662;2022-12-29T08:21:38;11.70;1.00
11894;DHT22;6006;49.696;8.662;2022-12-29T08:24:05;11.90;99.90
11894;DHT22;6006;49.696;8.662;2022-12-29T08:26:34;11.90;1.00
11894;DHT22;6006;49.696;8.662;2022-12-29T08:29:01;11.90;1.00
11894;DHT22;6006;49.696;8.662;2022-12-29T08:31:27;11.80;1.00
11894;DHT22;6006;49.696;8.662;2022-12-29T08:33:54;11.80;1.00
11894;DHT22;6006;49.696;8.662;2022-12-29T08:36:21;11.90;1.00
11894;DHT22;6006;49.696;8.662;2022-12-29T08:38:48;11.90;1.00
11894;DHT22;6006;49.696;8.662;2022-12-29T08:41:15;12.00;99.90
11894;DHT22;6006;49.696;8.662;2022-12-29T08:43:46;12.00;99.90
11894;DHT22;6006;49.696;8.662;2022-12-29T08:46:14;12.10;99.90
11894;DHT22;6006;49.696;8.662;2022-12-29T08:48:41;12.00;1.00
11894;DHT22;6006;49.696;8.662;2022-12-29T08:51:08;12.00;99.90
11894;DHT22;6006;49.696;8.662;2022-12-29T08:53:35;12.00;1.00
11894;DHT22;6006;49.696;8.662;2022-12-29T08:56:02;12.10;1.00
11894;DHT22;6006;49.696;8.662;2022-12-29T08:58:30;12.00;1.00
11894;DHT22;6006;49.696;8.662;2022-12-29T09:00:58;12.10;1.00
11894;DHT22;6006;49.696;8.662;2022-12-29T09:03:25;12.00;1.00
11894;DHT22;6006;49.696;8.662;2022-12-29T09:05:53;12.00;99.90
11894;DHT22;6006;49.696;8.662;2022-12-29T09:08:20;12.10;99.90
11894;DHT22;6006;49.696;8.662;2022-12-29T09:10:48;12.10;1.00
11894;DHT22;6006;49.696;8.662;2022-12-29T09:13:16;12.10;1.00
11894;DHT22;6006;49.696;8.662;2022-12-29T09:15:43;12.10;1.00
11894;DHT22;6006;49.696;8.662;2022-12-29T09:18:11;12.00;1.00
11894;DHT22;6006;49.696;8.662;2022-12-29T09:20:38;12.00;1.00
11894;DHT22;6006;49.696;8.662;2022-12-29T09:23:05;12.00;1.00
11894;DHT22;6006;49.696;8.662;2022-12-29T09:25:33;12.00;1.00
11894;DHT22;6006;49.696;8.662;2022-12-29T09:28:00;11.90;99.90
11894;DHT22;6006;49.696;8.662;2022-12-29T09:30:30;12.00;99.90
11894;DHT22;6006;49.696;8.662;2022-12-29T09:32:56;12.10;1.00
11894;DHT22;6006;49.696;8.662;2022-12-29T09:35:25;12.10;1.00
11894;DHT22;6006;49.696;8.662;2022-12-29T09:37:51;12.10;1.00
11894;DHT22;6006;49.696;8.662;2022-12-29T09:40:26;12.20;1.00
11894;DHT22;6006;49.696;8.662;2022-12-29T09:43:13;12.20;99.90
11894;DHT22;6006;49.696;8.662;2022-12-29T09:45:45;12.20;99.90
11894;DHT22;6006;49.696;8.662;2022-12-29T09:48:19;12.20;1.00
11894;DHT22;6006;49.696;8.662;2022-12-29T09:50:51;12.30;1.00
11894;DHT22;6006;49.696;8.662;2022-12-29T09:53:23;12.30;1.00
11894;DHT22;6006;49.696;8.662;2022-12-29T09:55:55;12.40;99.90
11894;DHT22;6006;49.696;8.662;2022-12-29T09:58:26;12.40;99.90
11894;DHT22;6006;49.696;8.662;2022-12-29T10:01:00;12.40;99.90
11894;DHT22;6006;49.696;8.662;2022-12-29T10:03:35;12.40;1.00
11894;DHT22;6006;49.696;8.662;2022-12-29T10:06:08;12.50;99.90
11894;DHT22;6006;49.696;8.662;2022-12-29T10:08:40;12.50;1.00
11894;DHT22;6006;49.696;8.662;2022-12-29T10:11:19;12.50;99.90
11894;DHT22;6006;49.696;8.662;2022-12-29T10:14:02;12.50;1.00
11894;DHT22;6006;49.696;8.662;2022-12-29T10:16:39;12.50;99.90
11894;DHT22;6006;49.696;8.662;2022-12-29T10:19:21;12.60;1.00
11894;DHT22;6006;49.696;8.662;2022-12-29T10:22:04;12.70;99.90
11894;DHT22;6006;49.696;8.662;2022-12-29T10:24:38;12.90;99.90
11894;DHT22;6006;49.696;8.662;2022-12-29T10:27:10;13.00;7.20
11894;DHT22;6006;49.696;8.662;2022-12-29T10:29:41;13.00;1.00
11894;DHT22;6006;49.696;8.662;2022-12-29T10:32:21;13.10;15.70
11894;DHT22;6006;49.696;8.662;2022-12-29T10:34:51;13.20;1.00
11894;DHT22;6006;49.696;8.662;2022-12-29T10:37:28;13.20;1.00
11894;DHT22;6006;49.696;8.662;2022-12-29T10:39:56;13.10;1.00
11894;DHT22;6006;49.696;8.662;2022-12-29T10:42:28;13.00;99.90
11894;DHT22;6006;49.696;8.662;2022-12-29T10:44:56;12.90;1.00
11894;DHT22;6006;49.696;8.662;2022-12-29T10:47:26;12.80;1.00
11894;DHT22;6006;49.696;8.662;2022-12-29T10:49:54;12.70;1.00
11894;DHT22;6006;49.696;8.662;2022-12-29T10:52:27;12.70;1.00
11894;DHT22;6006;49.696;8.662;2022-12-29T10:54:57;12.60;1.00
11894;DHT22;6006;49.696;8.662;2022-12-29T10:57:28;12.50;99.90
11894;DHT22;6006;49.696;8.662;2022-12-29T10:59:58;12.50;1.00
11894;DHT22;6006;49.696;8.662;2022-12-29T11:02:43;12.40;1.00
11894;DHT22;6006;49.696;8.662;2022-12-29T11:05:19;12.40;1.00
11894;DHT22;6006;49.696;8.662;2022-12-29T11:07:53;12.30;99.90
11894;DHT22;6006;49.696;8.662;2022-12-29T11:10:30;12.20;1.00
11894;DHT22;6006;49.696;8.662;2022-12-29T11:13:03;12.10;99.90
11894;DHT22;6006;49.696;8.662;2022-12-29T11:15:39;11.70;1.00
11894;DHT22;6006;49.696;8.662;2022-12-29T11:18:20;11.20;1.00
11894;DHT22;6006;49.696;8.662;2022-12-29T11:20:48;11.10;99.90
11894;DHT22;6006;49.696;8.662;2022-12-29T11:23:30;11.00;99.90
11894;DHT22;6006;49.696;8.662;2022-12-29T11:26:16;10.90;99.90
11894;DHT22;6006;49.696;8.662;2022-12-29T11:28:45;10.70;99.90
11894;DHT22;6006;49.696;8.662;2022-12-29T11:31:16;10.50;99.90
11894;DHT22;6006;49.696;8.662;2022-12-29T11:33:43;10.40;99.90
11894;DHT22;6006;49.696;8.662;2022-12-29T11:36:13;10.30;99.90
11894;DHT22;6006;49.696;8.662;2022-12-29T11:38:46;10.40;99.90
11894;DHT22;6006;49.696;8.662;2022-12-29T11:41:24;10.50;99.90
11894;DHT22;6006;49.696;8.662;2022-12-29T11:43:54;10.50;99.90
11894;DHT22;6006;49.696;8.662;2022-12-29T11:46:25;10.70;99.90
11894;DHT22;6006;49.696;8.662;2022-12-29T11:48:53;10.80;99.90
11894;DHT22;6006;49.696;8.662;2022-12-29T11:51:26;11.00;99.90
11894;DHT22;6006;49.696;8.662;2022-12-29T11:53:58;11.10;99.90
11894;DHT22;6006;49.696;8.662;2022-12-29T11:56:37;11.10;99.90
11894;DHT22;6006;49.696;8.662;2022-12-29T11:59:34;11.10;99.90
11894;DHT22;6006;49.696;8.662;2022-12-29T12:05:03;11.10;99.90
11894;DHT22;6006;49.696;8.662;2022-12-29T12:07:41;11.00;99.90
11894;DHT22;6006;49.696;8.662;2022-12-29T12:10:18;11.00;99.90
11894;DHT22;6006;49.696;8.662;2022-12-29T12:12:51;10.90;99.90
11894;DHT22;6006;49.696;8.662;2022-12-29T12:15:22;10.90;99.90
11894;DHT22;6006;49.696;8.662;2022-12-29T12:17:54;10.90;99.90
11894;DHT22;6006;49.696;8.662;2022-12-29T12:20:26;10.90;99.90
11894;DHT22;6006;49.696;8.662;2022-12-29T12:23:01;11.00;99.90
11894;DHT22;6006;49.696;8.662;2022-12-29T12:25:34;10.90;99.90
11894;DHT22;6006;49.696;8.662;2022-12-29T12:28:09;10.90;99.90
11894;DHT22;6006;49.696;8.662;2022-12-29T12:30:40;11.00;99.90
11894;DHT22;6006;49.696;8.662;2022-12-29T12:33:16;11.00;99.90
11894;DHT22;6006;49.696;8.662;2022-12-29T12:35:52;11.10;99.90
11894;DHT22;6006;49.696;8.662;2022-12-29T12:38:26;11.30;99.90
11894;DHT22;6006;49.696;8.662;2022-12-29T12:41:05;11.30;99.90
11894;DHT22;6006;49.696;8.662;2022-12-29T12:43:45;11.30;99.90
11894;DHT22;6006;49.696;8.662;2022-12-29T12:46:50;11.40;99.90
11894;DHT22;6006;49.696;8.662;2022-12-29T12:49:41;11.50;99.90
11894;DHT22;6006;49.696;8.662;2022-12-29T12:52:20;11.60;99.90
11894;DHT22;6006;49.696;8.662;2022-12-29T12:55:01;11.60;94.80
11894;DHT22;6006;49.696;8.662;2022-12-29T12:57:42;11.60;99.90
11894;DHT22;6006;49.696;8.662;2022-12-29T13:00:13;11.60;99.90
11894;DHT22;6006;49.696;8.662;2022-12-29T13:03:12;11.60;1.00
11894;DHT22;6006;49.696;8.662;2022-12-29T13:06:04;11.50;11.20
11894;DHT22;6006;49.696;8.662;2022-12-29T13:08:46;11.60;1.00
11894;DHT22;6006;49.696;8.662;2022-12-29T13:11:21;11.60;1.00
11894;DHT22;6006;49.696;8.662;2022-12-29T13:14:04;11.60;1.00
11894;DHT22;6006;49.696;8.662;2022-12-29T13:16:40;11.50;1.00
11894;DHT22;6006;49.696;8.662;2022-12-29T13:19:12;11.50;76.20
11894;DHT22;6006;49.696;8.662;2022-12-29T13:21:55;11.50;1.00
11894;DHT22;6006;49.696;8.662;2022-12-29T13:24:27;11.50;1.00
11894;DHT22;6006;49.696;8.662;2022-12-29T13:27:03;11.50;99.90
11894;DHT22;6006;49.696;8.662;2022-12-29T13:29:35;11.60;99.90
11894;DHT22;6006;49.696;8.662;2022-12-29T13:32:15;11.60;1.00
11894;DHT22;6006;49.696;8.662;2022-12-29T13:34:56;11.60;99.90
11894;DHT22;6006;49.696;8.662;2022-12-29T13:37:30;11.70;1.00
11894;DHT22;6006;49.696;8.662;2022-12-29T13:40:00;11.60;1.00
11894;DHT22;6006;49.696;8.662;2022-12-29T13:42:32;11.60;14.60
11894;DHT22;6006;49.696;8.662;2022-12-29T13:45:04;11.60;99.90
11894;DHT22;6006;49.696;8.662;2022-12-29T13:47:36;11.50;1.00
11894;DHT22;6006;49.696;8.662;2022-12-29T13:50:12;11.50;1.00
11894;DHT22;6006;49.696;8.662;2022-12-29T13:52:49;11.50;1.00
11894;DHT22;6006;49.696;8.662;2022-12-29T13:55:26;11.50;1.00
11894;DHT22;6006;49.696;8.662;2022-12-29T13:57:59;11.50;1.00
11894;DHT22;6006;49.696;8.662;2022-12-29T14:00:33;11.40;99.90
11894;DHT22;6006;49.696;8.662;2022-12-29T14:03:23;11.50;99.90
11894;DHT22;6006;49.696;8.662;2022-12-29T14:06:10;11.50;99.90
11894;DHT22;6006;49.696;8.662;2022-12-29T14:08:38;11.50;99.90
11894;DHT22;6006;49.696;8.662;2022-12-29T14:11:08;11.50;99.90
11894;DHT22;6006;49.696;8.662;2022-12-29T14:13:38;11.40;1.00
11894;DHT22;6006;49.696;8.662;2022-12-29T14:16:21;11.40;99.90
11894;DHT22;6006;49.696;8.662;2022-12-29T14:18:50;11.30;99.90
11894;DHT22;6006;49.696;8.662;2022-12-29T14:21:20;11.30;1.00
11894;DHT22;6006;49.696;8.662;2022-12-29T14:23:50;11.30;1.00
11894;DHT22;6006;49.696;8.662;2022-12-29T14:26:34;11.20;99.90
11894;DHT22;6006;49.696;8.662;2022-12-29T14:29:44;11.10;99.90
11894;DHT22;6006;49.696;8.662;2022-12-29T14:32:37;10.90;99.90
11894;DHT22;6006;49.696;8.662;2022-12-29T14:35:37;10.90;1.00
11894;DHT22;6006;49.696;8.662;2022-12-29T14:38:15;10.80;99.90
11894;DHT22;6006;49.696;8.662;2022-12-29T14:40:43;10.70;1.00
11894;DHT22;6006;49.696;8.662;2022-12-29T14:43:18;10.70;99.90
11894;DHT22;6006;49.696;8.662;2022-12-29T14:45:53;10.60;99.90
11894;DHT22;6006;49.696;8.662;2022-12-29T14:48:38;10.60;99.90
11894;DHT22;6006;49.696;8.662;2022-12-29T14:51:29;10.40;99.90
11894;DHT22;6006;49.696;8.662;2022-12-29T14:53:57;10.30;1.00
11894;DHT22;6006;49.696;8.662;2022-12-29T14:56:26;10.30;1.00
11894;DHT22;6006;49.696;8.662;2022-12-29T14:58:56;10.20;1.00
11894;DHT22;6006;49.696;8.662;2022-12-29T15:01:38;10.10;1.00
11894;DHT22;6006;49.696;8.662;2022-12-29T15:04:15;10.00;1.00
11894;DHT22;6006;49.696;8.662;2022-12-29T15:06:43;9.90;99.90
11894;DHT22;6006;49.696;8.662;2022-12-29T15:09:19;9.90;99.90
11894;DHT22;6006;49.696;8.662;2022-12-29T15:11:52;9.90;99.90
11894;DHT22;6006;49.696;8.662;2022-12-29T15:14:32;9.90;98.00
11894;DHT22;6006;49.696;8.662;2022-12-29T15:17:00;9.90;99.90
11894;DHT22;6006;49.696;8.662;2022-12-29T15:19:29;9.90;1.00
11894;DHT22;6006;49.696;8.662;2022-12-29T15:21:56;9.90;1.00
11894;DHT22;6006;49.696;8.662;2022-12-29T15:24:23;9.80;1.00
11894;DHT22;6006;49.696;8.662;2022-12-29T15:26:53;9.80;35.30
11894;DHT22;6006;49.696;8.662;2022-12-29T15:29:31;9.70;89.90
11894;DHT22;6006;49.696;8.662;2022-12-29T15:32:00;9.60;99.90
11894;DHT22;6006;49.696;8.662;2022-12-29T15:34:31;9.50;99.90
11894;DHT22;6006;49.696;8.662;2022-12-29T15:36:58;9.50;99.90
11894;DHT22;6006;49.696;8.662;2022-12-29T15:39:28;9.50;99.90
11894;DHT22;6006;49.696;8.662;2022-12-29T15:41:59;9.40;99.90
11894;DHT22;6006;49.696;8.662;2022-12-29T15:44:29;9.40;99.90
11894;DHT22;6006;49.696;8.662;2022-12-29T15:47:01;9.40;86.80
11894;DHT22;6006;49.696;8.662;2022-12-29T15:49:30;9.40;1.00
11894;DHT22;6006;49.696;8.662;2022-12-29T15:51:57;9.40;3.30
11894;DHT22;6006;49.696;8.662;2022-12-29T15:54:31;9.40;1.00
11894;DHT22;6006;49.696;8.662;2022-12-29T15:56:58;9.40;40.60
11894;DHT22;6006;49.696;8.662;2022-12-29T15:59:27;9.40;25.60
11894;DHT22;6006;49.696;8.662;2022-12-29T16:01:54;9.40;1.00
11894;DHT22;6006;49.696;8.662;2022-12-29T16:04:23;9.40;1.00
11894;DHT22;6006;49.696;8.662;2022-12-29T16:06:57;9.40;23.10
11894;DHT22;6006;49.696;8.662;2022-12-29T16:09:31;9.40;55.80
11894;DHT22;6006;49.696;8.662;2022-12-29T16:12:00;9.30;99.90
11894;DHT22;6006;49.696;8.662;2022-12-29T16:14:32;9.20;99.90
11894;DHT22;6006;49.696;8.662;2022-12-29T16:17:02;9.20;99.90
11894;DHT22;6006;49.696;8.662;2022-12-29T16:19:33;9.10;99.90
11894;DHT22;6006;49.696;8.662;2022-12-29T16:22:09;9.20;99.90
11894;DHT22;6006;49.696;8.662;2022-12-29T16:24:37;9.20;99.90
11894;DHT22;6006;49.696;8.662;2022-12-29T16:27:07;9.30;99.90
11894;DHT22;6006;49.696;8.662;2022-12-29T16:29:35;9.40;1.00
11894;DHT22;6006;49.696;8.662;2022-12-29T16:32:24;9.40;1.00
11894;DHT22;6006;49.696;8.662;2022-12-29T16:34:52;9.40;1.00